Flight Track Log - Related Links

Times and Time Zones

All times are in EST time to prevent confusion due to time zone crossing. See the UAL396 flight status page for this flight to view local times or setup timezone preferences in your user account.

Time Position Orientation Groundspeed Altitude Reporting Facility
EST Latitude Longitude Course Direction KTS MPH feet Rate Location/Type
Tue 03:20:17 AM 21.2833 -157.8833 148° Southeast 180 207 1,300  Level Honolulu Center
Tue 03:21:17 AM 21.2333 -157.8500 105° East 220 253 3,300 1,983 Climbing Honolulu Center
Tue 03:22:18 AM 21.2167 -157.7833 78° East 260 299 5,300 2,331 Climbing Honolulu Center
Tue 03:23:18 AM 21.2333 -157.7000 78° East 280 322 8,000 2,450 Climbing Honolulu Center
Tue 03:24:18 AM 21.2500 -157.6167 67° East 290 334 10,200 1,736 Climbing Honolulu Center
Tue 03:25:19 AM 21.2833 -157.5333 81° East 340 391 11,500 1,686 Climbing Honolulu Center
Tue 03:26:19 AM 21.3000 -157.4167 70° East 370 426 13,600 2,050 Climbing Honolulu Center
Tue 03:27:19 AM 21.3333 -157.3167 73° East 380 437 15,600 2,000 Climbing Honolulu Center
Tue 03:28:19 AM 21.3667 -157.2000 54° Northeast 400 460 17,600 1,835 Climbing Honolulu Center
Tue 03:29:20 AM 21.4333 -157.1000 54° Northeast 410 472 19,300 1,587 Climbing Honolulu Center
Tue 03:30:20 AM 21.5000 -157.0000 58° Northeast 420 483 20,800 1,600 Climbing Honolulu Center
Tue 03:31:20 AM 21.5667 -156.8833 54° Northeast 430 495 22,500 1,636 Climbing Honolulu Center
Tue 03:32:21 AM 21.6333 -156.7833 52° Northeast 440 506 24,100 1,438 Climbing Honolulu Center
Tue 03:33:21 AM 21.7167 -156.6667 58° Northeast 460 529 25,400 1,400 Climbing Honolulu Center
Tue 03:34:21 AM 21.7833 -156.5500 52° Northeast 470 541 26,900 1,339 Climbing Honolulu Center
Tue 03:35:22 AM 21.8667 -156.4333 58° Northeast 470 541 28,100 1,190 Climbing Honolulu Center
Tue 03:36:22 AM 21.9333 -156.3167 56° Northeast 490 564 29,300 1,190 Climbing Honolulu Center
Tue 03:37:23 AM 22.0167 -156.1833 52° Northeast 500 575 30,500 1,140 Climbing Honolulu Center
Tue 03:38:23 AM 22.1000 -156.0667 56° Northeast 500 575 31,600 1,200 Climbing Honolulu Center
Tue 03:39:23 AM 22.1833 -155.9333 52° Northeast 510 587 32,900 1,240 Climbing Honolulu Center
Tue 03:40:24 AM 22.2667 -155.8167 62° Northeast 510 587 34,100 1,190 Climbing Honolulu Center
Tue 03:41:24 AM 22.3333 -155.6833 52° Northeast 500 575 35,300 1,050 Climbing Honolulu Center
Tue 03:42:24 AM 22.4167 -155.5667 56° Northeast 500 575 36,200 843 Climbing Honolulu Center
Tue 03:43:25 AM 22.5000 -155.4333 52° Northeast 500 575 37,000 397 Climbing Honolulu Center
Tue 03:44:25 AM 22.5833 -155.3167 58° Northeast 490 564 37,000  Level Honolulu Center
Tue 03:45:25 AM 22.6500 -155.2000 56° Northeast 500 575 37,000  Level Honolulu Center
Tue 03:46:25 AM 22.7333 -155.0667 58° Northeast 490 564 37,000  Level Honolulu Center
Tue 03:47:26 AM 22.8000 -154.9500 52° Northeast 490 564 37,000  Level Honolulu Center
Tue 03:48:26 AM 22.8833 -154.8333 56° Northeast 490 564 37,000  Level Honolulu Center
Tue 03:49:26 AM 22.9667 -154.7000 58° Northeast 490 564 37,000  Level Honolulu Center
Tue 03:50:27 AM 23.0333 -154.5833 56° Northeast 480 552 37,000  Level Honolulu Center
Tue 04:00:22 AM 23.7833 -153.3667 57° Northeast 491 565 37,000  Level Oakland Oceanic
Tue 04:11:26 AM 24.5833 -152.0000 57° Northeast 485 558 37,000  Level Oakland Oceanic
Tue 04:25:19 AM 25.5833 -150.2667 58° Northeast 486 559 37,000  Level Oakland Oceanic
Tue 04:39:10 AM 26.5667 -148.4833 59° Northeast 486 559 37,000  Level Oakland Oceanic
Tue 04:49:08 AM 27.2333 -147.2167 59° Northeast 489 563 37,000  Level Oakland Oceanic
Tue 04:53:03 AM 27.5167 -146.6833 60° Northeast 491 565 37,000  Level Oakland Oceanic
Tue 05:06:55 AM 28.4500 -144.8333 60° Northeast 494 568 37,000  Level Oakland Oceanic
Tue 05:20:47 AM 29.3667 -142.9667 61° Northeast 490 564 37,000  Level Oakland Oceanic
Tue 05:34:40 AM 30.2500 -141.0667 65° Northeast 482 555 37,000  Level Oakland Oceanic
Tue 05:37:24 AM 30.4000 -140.7000 62° Northeast 492 566 37,000  Level Oakland Oceanic
Tue 05:48:32 AM 31.1000 -139.1167 63° Northeast 496 571 37,000  Level Oakland Oceanic
Tue 06:02:23 AM 31.9333 -137.1333 65° Northeast 492 566 37,000 36 Level Oakland Oceanic
Tue 06:16:16 AM 32.7167 -135.1167 65° Northeast 490 564 38,000 41 Climbing Oakland Oceanic
Tue 06:26:35 AM 33.2833 -133.6167 66° East 495 570 38,000  Level Oakland Oceanic
Tue 06:30:09 AM 33.4833 -133.0833 67° East 495 570 38,000  Level Oakland Oceanic
Tue 06:41:27 AM 34.0667 -131.4167 68° East 494 568 38,000 14 Level Oakland Oceanic
Tue 06:44:01 AM 34.2000 -131.0167 68° East 496 571 38,200 215 Climbing Oakland Oceanic
Tue 06:46:06 AM 34.3000 -130.7167 66° East 501 577 39,000 262 Climbing Oakland Oceanic
Tue 06:47:04 AM 34.3500 -130.5833 68° East 503 579 39,000  Level Oakland Oceanic
Tue 06:57:53 AM 34.9000 -128.8500 69° East 511 588 39,000  Level Oakland Oceanic
Tue 07:11:51 AM 35.5833 -126.5833 72° East 515 593 39,000  Level Oakland Oceanic
Tue 07:12:24 AM 35.6100 -126.4800 70° East 477 549 39,000  Level Oakland Center
Tue 07:13:24 AM 35.6572 -126.3172 72° East 483 556 39,000  Level Oakland Center
Tue 07:14:24 AM 35.7003 -126.1486 66° East 495 570 39,000  Level Oakland Center
Tue 07:15:24 AM 35.7572 -125.9886 63° Northeast 507 583 39,000  Level Oakland Center
Tue 07:16:24 AM 35.8222 -125.8342 62° Northeast 507 583 39,000  Level Oakland Center
Tue 07:17:24 AM 35.8892 -125.6794 59° Northeast 507 583 39,000  Level Oakland Center
Tue 07:18:24 AM 35.9639 -125.5275 61° Northeast 507 583 39,000  Level Oakland Center
Tue 07:19:24 AM 36.0344 -125.3725 61° Northeast 507 583 39,000  Level Oakland Center
Tue 07:20:24 AM 36.1028 -125.2194 61° Northeast 505 581 39,000  Level Oakland Center
Tue 07:21:24 AM 36.1731 -125.0639 61° Northeast 510 587 39,000  Level Oakland Center
Tue 07:22:24 AM 36.2428 -124.9106 60° Northeast 510 587 39,000  Level Oakland Center
Tue 07:23:24 AM 36.3125 -124.7594 60° Northeast 510 587 39,000  Level Oakland Center
Tue 07:24:24 AM 36.3842 -124.6056 62° Northeast 510 587 39,000 -150 Level Oakland Center
Tue 07:25:24 AM 36.4514 -124.4514 61° Northeast 510 587 38,700 -1,300 Descending Oakland Center
Tue 07:26:24 AM 36.5183 -124.3019 61° Northeast 505 581 36,400 -2,600 Descending Oakland Center
Tue 07:27:24 AM 36.5872 -124.1497 62° Northeast 505 581 33,500 -2,600 Descending Oakland Center
Tue 07:28:24 AM 36.6517 -123.9969 60° Northeast 500 575 31,200 -2,200 Descending Oakland Center
Tue 07:29:24 AM 36.7200 -123.8494 62° Northeast 495 570 29,100 -2,050 Descending Oakland Center
Tue 07:30:24 AM 36.7819 -123.7039 61° Northeast 483 556 27,100 -2,000 Descending Oakland Center
Tue 07:31:24 AM 36.8436 -123.5636 62° Northeast 467 537 25,100 -2,000 Descending Oakland Center
Tue 07:32:24 AM 36.9008 -123.4303 62° Northeast 456 525 23,100 -2,050 Descending Oakland Center
Tue 07:33:24 AM 36.9578 -123.2969 61° Northeast 437 503 21,000 -2,050 Descending Oakland Center
Tue 07:34:24 AM 37.0144 -123.1689 62° Northeast 426 490 19,000 -2,000 Descending Oakland Center
Tue 07:35:24 AM 37.0689 -123.0428 63° Northeast 415 478 17,000 -2,050 Descending Oakland Center
Tue 07:36:24 AM 37.1211 -122.9167 62° Northeast 405 466 14,900 -2,000 Descending Oakland Center
Tue 07:37:24 AM 37.1708 -122.8006 61° Northeast 391 450 13,000 -1,850 Descending Oakland Center
Tue 07:38:24 AM 37.2206 -122.6869 62° Northeast 380 437 11,200 -1,250 Descending Oakland Center
Tue 07:39:24 AM 37.2636 -122.5836 63° Northeast 352 405 10,500 -650 Descending Oakland Center
Tue 07:40:24 AM 37.3006 -122.4906 61° Northeast 316 364 9,900 -1,100 Descending Oakland Center
Tue 07:41:24 AM 37.3392 -122.4025 68° East 289 333 8,300 -1,065 Descending Oakland Center
Tue 07:42:11 AM 37.3667 -122.3167 58° Northeast 271 312 8,000 -389 Descending Northern TRACON
Tue 07:43:12 AM 37.4000 -122.2500 76° East 250 288 7,600 -893 Descending Northern TRACON
Tue 07:44:12 AM 37.4167 -122.1667 22° Northeast 249 287 6,200 -1,550 Descending Northern TRACON
Tue 07:45:12 AM 37.4833 -122.1333 345° North 213 245 4,500 -1,150 Descending Northern TRACON
Tue 07:46:12 AM 37.5333 -122.1500 293° West 216 249 3,900 -793 Descending Northern TRACON
Tue 07:47:13 AM 37.5500 -122.2000 293° West 185 213 2,900 -992 Descending Northern TRACON
Tue 07:48:13 AM 37.5667 -122.2500 293° West 145 167 1,900 -850 Descending Northern TRACON
Tue 07:49:13 AM 37.5833 -122.3000 302° West 128 147 1,200 -645 Descending Northern TRACON
Tue 07:50:14 AM 37.6000 -122.3333 302° West 130 150 600 -590 Descending Northern TRACON

Login

Don't have an account? Register now (free) for customized features, flight alerts, and more!